Home > Products > Valid Products > TAF

000
FTUS43 KFGF 281100
TAFFAR
TAF
KFAR 281122Z 2812/2912 16011KT P6SM SCT035
     FM281500 17015G24KT P6SM BKN060
     FM281800 17024G33KT P6SM SCT120
     FM290500 17024G34KT P6SM -SHRA BKN035
     FM291100 32022G30KT P6SM VCSH OVC025=



000
FTUS43 KFGF 281100
TAFGFK
TAF
KGFK 281122Z 2812/2912 16009KT P6SM BKN035
     FM281500 17015G24KT P6SM BKN060
     FM281800 18024G33KT P6SM BKN120
     FM290500 20020G30KT P6SM -SHRA BKN035
     FM290900 32020G30KT P6SM VCSH OVC025=



000
FTUS43 KFGF 281100
TAFFAR
TAF
KFAR 281122Z 2812/2912 16011KT P6SM SCT035
     FM281500 17015G24KT P6SM BKN060
     FM281800 17024G33KT P6SM SCT120
     FM290500 17024G34KT P6SM -SHRA BKN035
     FM291100 32022G30KT P6SM VCSH OVC025=



000
FTUS43 KFGF 281100
TAFGFK
TAF
KGFK 281122Z 2812/2912 16009KT P6SM BKN035
     FM281500 17015G24KT P6SM BKN060
     FM281800 18024G33KT P6SM BKN120
     FM290500 20020G30KT P6SM -SHRA BKN035
     FM290900 32020G30KT P6SM VCSH OVC025=



000
FTUS43 KFGF 280500
TAFFAR
TAF
KFAR 280520Z 2806/2906 16008KT P6SM OVC060
     FM281500 17015G24KT P6SM BKN060
     FM281800 17023G33KT P6SM SCT120
     FM290400 17024G34KT P6SM -SHRA BKN050=



000
FTUS43 KFGF 280500
TAFGFK
TAF
KGFK 280520Z 2806/2906 16009KT P6SM OVC060
     FM281500 17015G24KT P6SM BKN060
     FM281800 18022G32KT P6SM BKN120
     FM290400 18020G30KT P6SM -SHRA BKN050=



000
FTUS43 KFGF 280500
TAFFAR
TAF
KFAR 280520Z 2806/2906 16008KT P6SM OVC060
     FM281500 17015G24KT P6SM BKN060
     FM281800 17023G33KT P6SM SCT120
     FM290400 17024G34KT P6SM -SHRA BKN050=



000
FTUS43 KFGF 280500
TAFGFK
TAF
KGFK 280520Z 2806/2906 16009KT P6SM OVC060
     FM281500 17015G24KT P6SM BKN060
     FM281800 18022G32KT P6SM BKN120
     FM290400 18020G30KT P6SM -SHRA BKN050=



000
FTUS43 KFGF 280300 AAA
TAFFAR
TAF AMD
KFAR 280324Z 2803/2824 16008KT P6SM OVC050
     FM281500 17013G21KT P6SM BKN040
     FM281800 17020G30KT P6SM SCT120=



000
FTUS43 KFGF 280200 AAA
TAFGFK
TAF AMD
KGFK 280201Z 2802/2824 16009KT P6SM OVC060
     FM281400 17014G22KT P6SM BKN060
     FM281700 17020G30KT P6SM BKN120=



000
FTUS43 KFGF 280200 AAA
TAFGFK
TAF AMD
KGFK 280201Z 2802/2824 16009KT P6SM OVC060
     FM281400 17014G22KT P6SM BKN060
     FM281700 17020G30KT P6SM BKN120=



000
FTUS43 KFGF 272300 CCA
TAFFAR
TAF COR
KFAR 272342Z 2800/2824 15008KT P6SM OVC035
      TEMPO 2800/2801 3SM -SN OVC022
     FM281500 17013G21KT P6SM BKN040
     FM281800 17020G30KT P6SM SCT120=



000
FTUS43 KFGF 272300 CCA
TAFFAR
TAF COR
KFAR 272342Z 2800/2824 15008KT P6SM OVC035
      TEMPO 2800/2801 3SM -SN OVC022
     FM281500 17013G21KT P6SM BKN040
     FM281800 17020G30KT P6SM SCT120=



000
FTUS43 KFGF 272300
TAFGFK
TAF
KGFK 272326Z 2800/2824 16009KT P6SM OVC035
      TEMPO 2800/2802 BKN015
     FM281400 17014G22KT P6SM BKN060
     FM281700 17020G30KT P6SM BKN120=



000
FTUS43 KFGF 272300
TAFFAR
TAF
KFAR 272326Z 2800/2824 15008KT P6SM OVC035
     FM281500 17013G21KT P6SM BKN040
     FM281800 17020G30KT P6SM SCT120=



000
FTUS43 KFGF 272300
TAFGFK
TAF
KGFK 272326Z 2800/2824 16009KT P6SM OVC035
      TEMPO 2800/2802 BKN015
     FM281400 17014G22KT P6SM BKN060
     FM281700 17020G30KT P6SM BKN120=



000
FTUS43 KFGF 272300
TAFFAR
TAF
KFAR 272326Z 2800/2824 15008KT P6SM OVC035
     FM281500 17013G21KT P6SM BKN040
     FM281800 17020G30KT P6SM SCT120=



000
FTUS43 KFGF 272300 AAB
TAFFAR
TAF AMD
KFAR 272302Z 2723/2818 16010KT P6SM OVC050
      TEMPO 2723/2724 3SM -SN BKN030
     FM280900 16009KT P6SM SCT050
     FM281600 17018G25KT P6SM FEW250=



000
FTUS43 KFGF 272300 AAB
TAFFAR
TAF AMD
KFAR 272302Z 2723/2818 16010KT P6SM OVC050
      TEMPO 2723/2724 3SM -SN BKN030
     FM280900 16009KT P6SM SCT050
     FM281600 17018G25KT P6SM FEW250=



000
FTUS43 KFGF 272100 AAA
TAFFAR
TAF AMD
KFAR 272135Z 2722/2818 16010KT P6SM OVC050
      TEMPO 2722/2723 3SM -SN BKN030
     FM272300 15008KT P6SM OVC050
     FM280900 16009KT P6SM SCT050
     FM281600 17018G25KT P6SM FEW250=



000
FTUS43 KFGF 272100 AAA
TAFGFK
TAF AMD
KGFK 272123Z 2721/2818 16012KT P6SM OVC050
      TEMPO 2721/2723 3SM -SN BKN025
     FM280400 16007KT P6SM BKN050
     FM281600 18020G25KT P6SM SCT250=



000
FTUS43 KFGF 272100 AAA
TAFGFK
TAF AMD
KGFK 272123Z 2721/2818 16012KT P6SM OVC050
      TEMPO 2721/2723 3SM -SN BKN025
     FM280400 16007KT P6SM BKN050
     FM281600 18020G25KT P6SM SCT250=



000
FTUS43 KFGF 271700
TAFFAR
TAF
KFAR 271720Z 2718/2818 18011KT P6SM BKN250
     FM272000 16009KT P6SM BKN050
     FM272300 15008KT P6SM OVC050
     FM280900 16009KT P6SM SCT050
     FM281600 17018G25KT P6SM FEW250=



000
FTUS43 KFGF 271700
TAFGFK
TAF
KGFK 271720Z 2718/2818 18012KT P6SM BKN100
     FM272200 16014KT P6SM OVC030
     FM280400 16007KT P6SM BKN050
     FM281600 18020G25KT P6SM SCT250=



000
FTUS43 KFGF 271100
TAFGFK
TAF
KGFK 271133Z 2712/2812 18005KT P6SM SCT250
     FM271800 17013KT P6SM BKN100
     FM272200 16014KT P6SM OVC050=



000
FTUS43 KFGF 271100
TAFFAR
TAF
KFAR 271133Z 2712/2812 18003KT P6SM SCT250
     FM271900 17012KT P6SM BKN100
     FM272300 17013KT P6SM OVC050=



000
FTUS43 KFGF 271100
TAFFAR
TAF
KFAR 271133Z 2712/2812 18003KT P6SM SCT250
     FM271900 17012KT P6SM BKN100
     FM272300 17013KT P6SM OVC050=



000
FTUS43 KFGF 271100
TAFGFK
TAF
KGFK 271133Z 2712/2812 18005KT P6SM SCT250
     FM271800 17013KT P6SM BKN100
     FM272200 16014KT P6SM OVC050=



000
FTUS43 KFGF 270500
TAFGFK
TAF
KGFK 270520Z 2706/2806 VRB03KT P6SM SKC
     FM271100 17008KT P6SM BKN250
     FM271700 17012G18KT P6SM BKN100
     FM272100 16012KT P6SM OVC050=



000
FTUS43 KFGF 270500
TAFFAR
TAF
KFAR 270520Z 2706/2806 VRB03KT P6SM SKC
     FM271200 17008KT P6SM BKN250
     FM271800 17012G18KT P6SM BKN100
     FM272100 17013KT P6SM OVC050=



000
FTUS43 KFGF 270500
TAFGFK
TAF
KGFK 270520Z 2706/2806 VRB03KT P6SM SKC
     FM271100 17008KT P6SM BKN250
     FM271700 17012G18KT P6SM BKN100
     FM272100 16012KT P6SM OVC050=



000
FTUS43 KFGF 270500
TAFFAR
TAF
KFAR 270520Z 2706/2806 VRB03KT P6SM SKC
     FM271200 17008KT P6SM BKN250
     FM271800 17012G18KT P6SM BKN100
     FM272100 17013KT P6SM OVC050=



000
FTUS43 KFGF 262300
TAFFAR
TAF
KFAR 262338Z 2700/2724 36014KT P6SM SCT040
     FM270300 VRB03KT P6SM SKC
     FM271200 17008KT P6SM BKN250
     FM271800 17012G18KT P6SM BKN100
     FM272100 17015G22KT P6SM BKN050=



000
FTUS43 KFGF 262300
TAFGFK
TAF
KGFK 262338Z 2700/2724 36013KT P6SM SCT040
     FM270300 VRB03KT P6SM SKC
     FM271200 17008KT P6SM BKN250
     FM271800 17012G18KT P6SM BKN100=



000
FTUS43 KFGF 262300
TAFGFK
TAF
KGFK 262338Z 2700/2724 36013KT P6SM SCT040
     FM270300 VRB03KT P6SM SKC
     FM271200 17008KT P6SM BKN250
     FM271800 17012G18KT P6SM BKN100=



000
FTUS43 KFGF 262300
TAFFAR
TAF
KFAR 262338Z 2700/2724 36014KT P6SM SCT040
     FM270300 VRB03KT P6SM SKC
     FM271200 17008KT P6SM BKN250
     FM271800 17012G18KT P6SM BKN100
     FM272100 17015G22KT P6SM BKN050=



000
FTUS43 KFGF 262000 AAA
TAFGFK
TAF AMD
KGFK 262036Z 2621/2718 36016KT P6SM BKN040
      TEMPO 2621/2622 -SN
     FM270000 36013KT P6SM SCT040
     FM270600 VRB06KT P6SM SKC=



000
FTUS43 KFGF 262000 AAA
TAFFAR
TAF AMD
KFAR 262036Z 2621/2718 35017KT P6SM BKN040
     FM270000 36014KT P6SM SCT040
     FM270600 VRB06KT P6SM SKC=



000
FTUS43 KFGF 261700
TAFGFK
TAF
KGFK 261720Z 2618/2718 35013KT P6SM BKN030
      TEMPO 2618/2621 SCT030
     FM262100 36013KT P6SM SCT040
     FM270600 VRB06KT P6SM SKC=



000
FTUS43 KFGF 261700
TAFFAR
TAF
KFAR 261720Z 2618/2718 35015KT P6SM BKN030
      TEMPO 2618/2621 BKN040
     FM262100 36014KT P6SM SCT040
     FM270600 VRB06KT P6SM SKC=



000
FTUS43 KFGF 261400 AAA
TAFFAR
TAF AMD
KFAR 261457Z 2615/2712 36008KT P6SM BKN025
      TEMPO 2615/2618 SCT025
     FM270000 36009KT P6SM SKC
     FM271000 15005KT P6SM BKN200=



000
FTUS43 KFGF 261100
TAFGFK
TAF
KGFK 261139Z 2612/2712 34010KT P6SM SCT020
     FM270000 36008KT P6SM SKC
     FM271000 15003KT P6SM BKN200=



000
FTUS43 KFGF 261100
TAFFAR
TAF
KFAR 261139Z 2612/2712 36008KT P6SM SCT050
     FM270000 36009KT P6SM SKC
     FM271000 15005KT P6SM BKN200=



000
FTUS43 KFGF 261100
TAFFAR
TAF
KFAR 261139Z 2612/2712 36008KT P6SM SCT050
     FM270000 36009KT P6SM SKC
     FM271000 15005KT P6SM BKN200=



000
FTUS43 KFGF 261100
TAFGFK
TAF
KGFK 261139Z 2612/2712 34010KT P6SM SCT020
     FM270000 36008KT P6SM SKC
     FM271000 15003KT P6SM BKN200=



000
FTUS43 KFGF 260500
TAFFAR
TAF
KFAR 260520Z 2606/2706 33013KT P6SM BKN050
     FM261500 36012KT P6SM SCT050
     FM262300 36008KT P6SM SKC=



000
FTUS43 KFGF 260500
TAFGFK
TAF
KGFK 260520Z 2606/2706 33010KT P6SM BKN040
     FM261500 36012KT P6SM SCT050
     FM262300 36008KT P6SM SKC=



000
FTUS43 KFGF 260200 AAA
TAFGFK
TAF AMD
KGFK 260239Z 2603/2624 33010KT P6SM SCT050
     FM261500 01012KT P6SM SCT050=



000
FTUS43 KFGF 260200 AAA
TAFGFK
TAF AMD
KGFK 260239Z 2603/2624 33010KT P6SM SCT050
     FM261500 01012KT P6SM SCT050=



000
FTUS43 KFGF 252300
TAFGFK
TAF
KGFK 252336Z 2600/2624 33017G25KT P6SM BKN050
     FM260300 33013KT P6SM BKN050
     FM261500 01012KT P6SM SCT050=



000
FTUS43 KFGF 252300
TAFFAR
TAF
KFAR 252336Z 2600/2624 33017G25KT P6SM BKN050
     FM260300 33013KT P6SM BKN050
     FM261500 36012KT P6SM SCT050=



000
FTUS43 KFGF 252200 AAA
TAFFAR
TAF AMD
KFAR 252253Z 2523/2618 33022G30KT P6SM BKN050
     FM260200 33009KT P6SM BKN050
     FM261500 36012KT P6SM SCT050=



000
FTUS43 KFGF 252200 AAA
TAFGFK
TAF AMD
KGFK 252253Z 2523/2618 33020G30KT P6SM BKN040
     FM260100 33017G24KT P6SM BKN050
     FM260300 33009KT P6SM BKN050
     FM261500 01012KT P6SM SCT050=



000
FTUS43 KFGF 251700
TAFGFK
TAF
KGFK 251720Z 2518/2618 32023G33KT P6SM OVC020
     FM252000 33020G30KT P6SM BKN025
     FM260100 33017G24KT P6SM BKN035
     FM260300 33009KT P6SM BKN050
     FM261500 01012KT P6SM SCT050=



000
FTUS43 KFGF 251700
TAFGFK
TAF
KGFK 251720Z 2518/2618 32023G33KT P6SM OVC020
     FM252000 33020G30KT P6SM BKN025
     FM260100 33017G24KT P6SM BKN035
     FM260300 33009KT P6SM BKN050
     FM261500 01012KT P6SM SCT050=



000
FTUS43 KFGF 251700
TAFFAR
TAF
KFAR 251720Z 2518/2618 31025G38KT 5SM -SN OVC025
     FM251900 32027G35KT P6SM BKN025
      TEMPO 2519/2522 32030G40KT 3SM BLSN
     FM252200 33022G28KT P6SM SCT035
     FM260200 33009KT P6SM BKN040
     FM261500 36012KT P6SM SCT050=



000
FTUS43 KFGF 251700
TAFFAR
TAF
KFAR 251720Z 2518/2618 31025G38KT 5SM -SN OVC025
     FM251900 32027G35KT P6SM BKN025
      TEMPO 2519/2522 32030G40KT 3SM BLSN
     FM252200 33022G28KT P6SM SCT035
     FM260200 33009KT P6SM BKN040
     FM261500 36012KT P6SM SCT050=



000
FTUS43 KFGF 251600 AAA
TAFGFK
TAF AMD
KGFK 251627Z 2516/2612 32025G35KT P6SM OVC020
     FM252000 33020G30KT P6SM BKN025
     FM260100 33017G24KT P6SM BKN035
     FM260300 33009KT P6SM BKN050=



    US Dept of Commerce
    National Oceanic and Atmospheric Administration
    National Weather Service
    1325 East West Highway
    Silver Spring, MD 20910
    Page Author: NWS Internet Services Team
Disclaimer
Information Quality
Credits
Glossary
Privacy Policy
Freedom of Information Act (FOIA)
About Us
Career Opportunities